createdAt,value
2023-05-02T00:00:03.529Z,23.00
2023-05-02T00:00:22.325Z,23.00
2023-05-02T00:00:33.312Z,23.03
2023-05-02T00:00:43.340Z,23.01
2023-05-02T00:00:53.317Z,23.00
2023-05-02T00:01:03.342Z,23.00
2023-05-02T00:01:13.309Z,23.00
2023-05-02T00:01:23.319Z,23.00
2023-05-02T00:01:43.338Z,23.00
2023-05-02T00:01:53.396Z,23.00
2023-05-02T00:02:03.353Z,22.99
2023-05-02T00:02:13.356Z,23.00
2023-05-02T00:02:23.339Z,23.04
2023-05-02T00:02:43.509Z,23.00
2023-05-02T00:03:03.480Z,23.03
2023-05-02T00:03:13.437Z,22.99
2023-05-02T00:03:23.408Z,23.03
2023-05-02T00:03:33.339Z,23.04
2023-05-02T00:03:43.375Z,23.01
2023-05-02T00:03:53.492Z,23.01
2023-05-02T00:04:03.469Z,23.00
2023-05-02T00:04:23.399Z,23.03
2023-05-02T00:04:33.363Z,23.00
2023-05-02T00:04:43.517Z,23.01
2023-05-02T00:05:03.307Z,23.03
2023-05-02T00:05:13.276Z,23.03
2023-05-02T00:05:33.275Z,23.03
2023-05-02T00:05:43.297Z,23.01
2023-05-02T00:05:53.281Z,23.00
2023-05-02T00:06:03.358Z,23.01
2023-05-02T00:06:13.318Z,23.01
2023-05-02T00:06:23.310Z,23.00
2023-05-02T00:06:43.321Z,23.01
2023-05-02T00:06:53.300Z,22.99
2023-05-02T00:07:03.284Z,22.99
2023-05-02T00:07:13.274Z,23.01
2023-05-02T00:07:23.296Z,23.00
2023-05-02T00:07:43.293Z,23.00
2023-05-02T00:08:03.272Z,22.99
2023-05-02T00:08:13.276Z,23.00
2023-05-02T00:08:23.291Z,23.01
2023-05-02T00:08:33.260Z,22.96
2023-05-02T00:08:43.273Z,23.01
2023-05-02T00:08:53.249Z,23.01
2023-05-02T00:09:13.261Z,22.99
2023-05-02T00:09:23.284Z,23.00
2023-05-02T00:09:33.245Z,23.00
2023-05-02T00:09:58.583Z,23.00
2023-05-02T00:10:03.865Z,23.00
2023-05-02T00:10:13.877Z,23.00
2023-05-02T00:10:23.868Z,22.99
2023-05-02T00:10:33.892Z,23.00
2023-05-02T00:10:53.890Z,22.99
2023-05-02T00:11:03.867Z,22.99
2023-05-02T00:11:13.892Z,22.97
2023-05-02T00:11:23.858Z,23.01
2023-05-02T00:11:33.885Z,23.00
2023-05-02T00:11:43.860Z,22.97
2023-05-02T00:12:02.867Z,23.01
2023-05-02T00:12:13.909Z,22.99
2023-05-02T00:12:33.867Z,23.00
2023-05-02T00:12:43.845Z,23.01
2023-05-02T00:12:53.885Z,23.00
2023-05-02T00:13:03.847Z,23.00
2023-05-02T00:13:23.837Z,23.01
2023-05-02T00:13:33.872Z,23.00
2023-05-02T00:13:43.840Z,22.99
2023-05-02T00:13:53.870Z,23.01
2023-05-02T00:14:03.833Z,23.01
2023-05-02T00:14:13.894Z,23.01
2023-05-02T00:14:33.862Z,22.97
2023-05-02T00:14:53.872Z,23.00
2023-05-02T00:15:03.830Z,23.00
2023-05-02T00:15:13.869Z,22.99
2023-05-02T00:15:23.856Z,23.01
2023-05-02T00:15:43.826Z,22.99
2023-05-02T00:15:53.839Z,22.99
2023-05-02T00:16:03.881Z,23.03
2023-05-02T00:16:13.862Z,22.99
2023-05-02T00:16:23.848Z,22.99
2023-05-02T00:16:33.896Z,23.03
2023-05-02T00:16:52.973Z,22.99
2023-05-02T00:17:03.913Z,23.00
2023-05-02T00:17:13.994Z,22.99
2023-05-02T00:17:23.968Z,23.01
2023-05-02T00:17:33.922Z,23.00
2023-05-02T00:17:52.950Z,22.99
2023-05-02T00:18:03.960Z,23.00
2023-05-02T00:18:14.018Z,23.00
2023-05-02T00:18:23.916Z,22.97
2023-05-02T00:18:33.954Z,23.01
2023-05-02T00:18:43.913Z,22.99
2023-05-02T00:18:53.925Z,22.97
2023-05-02T00:19:13.936Z,22.99
2023-05-02T00:19:23.907Z,23.00
2023-05-02T00:19:33.928Z,22.99
2023-05-02T00:19:52.935Z,22.99
2023-05-02T00:20:03.953Z,23.00
2023-05-02T00:20:23.909Z,23.00
2023-05-02T00:20:33.959Z,23.00
2023-05-02T00:20:43.905Z,23.00
2023-05-02T00:20:53.930Z,23.00
2023-05-02T00:21:03.906Z,22.99
2023-05-02T00:21:13.928Z,22.99
2023-05-02T00:21:33.930Z,22.99
2023-05-02T00:21:43.912Z,22.99
2023-05-02T00:21:53.906Z,22.97
2023-05-02T00:22:03.894Z,22.99
2023-05-02T00:22:23.884Z,23.00
2023-05-02T00:22:43.886Z,23.00
2023-05-02T00:22:53.896Z,22.99
2023-05-02T00:23:03.885Z,22.99
2023-05-02T00:23:13.900Z,22.97
2023-05-02T00:23:23.890Z,22.99
2023-05-02T00:23:33.914Z,23.01
2023-05-02T00:23:53.894Z,22.99
2023-05-02T00:24:03.875Z,23.00
2023-05-02T00:24:13.925Z,22.97
2023-05-02T00:24:23.870Z,22.99
2023-05-02T00:24:43.880Z,23.00
2023-05-02T00:25:03.890Z,23.01
2023-05-02T00:25:13.896Z,22.97
2023-05-02T00:25:23.867Z,23.00
2023-05-02T00:25:33.898Z,22.99
2023-05-02T00:25:43.866Z,23.01
2023-05-02T00:25:53.879Z,22.99
2023-05-02T00:26:12.874Z,23.00
2023-05-02T00:26:23.863Z,23.00
2023-05-02T00:26:33.889Z,23.00
2023-05-02T00:26:43.861Z,22.99
2023-05-02T00:26:53.887Z,22.99
2023-05-02T00:27:23.871Z,22.99
2023-05-02T00:27:33.912Z,22.97
2023-05-02T00:27:43.865Z,22.97
2023-05-02T00:27:53.867Z,22.97
2023-05-02T00:28:03.847Z,22.99
2023-05-02T00:28:13.910Z,22.97
2023-05-02T00:28:32.857Z,22.97
2023-05-02T00:28:43.845Z,22.99
2023-05-02T00:28:53.878Z,22.96
2023-05-02T00:29:03.850Z,22.97
2023-05-02T00:29:13.871Z,22.99
2023-05-02T00:29:23.836Z,22.99
2023-05-02T00:29:33.860Z,22.99
2023-05-02T00:29:53.901Z,22.97
2023-05-02T00:30:03.903Z,23.00
2023-05-02T00:30:13.884Z,22.97
2023-05-02T00:30:23.830Z,22.97
2023-05-02T00:30:33.864Z,22.96
2023-05-02T00:30:43.874Z,22.97
2023-05-02T00:31:02.942Z,22.97
2023-05-02T00:31:13.895Z,22.97
2023-05-02T00:31:23.880Z,22.97
2023-05-02T00:31:34.018Z,22.99
2023-05-02T00:31:43.870Z,22.99
2023-05-02T00:31:53.840Z,22.97
2023-05-02T00:32:03.828Z,22.97
2023-05-02T00:32:23.846Z,22.99
2023-05-02T00:32:33.855Z,22.99
2023-05-02T00:32:43.893Z,22.97
2023-05-02T00:32:53.868Z,22.99
2023-05-02T00:33:03.839Z,22.99
2023-05-02T00:33:13.900Z,22.99
2023-05-02T00:33:33.844Z,22.97
2023-05-02T00:33:43.822Z,22.99
2023-05-02T00:33:53.820Z,22.99
2023-05-02T00:34:03.801Z,23.01
2023-05-02T00:34:13.822Z,23.00
2023-05-02T00:34:23.809Z,23.00
2023-05-02T00:34:43.798Z,22.99
2023-05-02T00:34:53.838Z,22.97
2023-05-02T00:35:03.824Z,23.00
2023-05-02T00:35:13.837Z,22.97
2023-05-02T00:35:23.796Z,22.97
2023-05-02T00:35:33.816Z,22.97
2023-05-02T00:35:53.807Z,23.00
2023-05-02T00:36:03.789Z,22.97
2023-05-02T00:36:13.823Z,22.99
2023-05-02T00:36:23.808Z,22.96
2023-05-02T00:36:33.827Z,22.99
2023-05-02T00:36:43.789Z,22.99
2023-05-02T00:36:53.839Z,22.97
2023-05-02T00:37:13.800Z,23.00
2023-05-02T00:37:23.786Z,22.99
2023-05-02T00:37:33.825Z,22.96
2023-05-02T00:37:43.779Z,22.99
2023-05-02T00:37:53.797Z,22.94
2023-05-02T00:38:03.788Z,23.00
2023-05-02T00:38:13.813Z,22.97
2023-05-02T00:38:33.832Z,22.99
2023-05-02T00:38:43.780Z,22.99
2023-05-02T00:38:53.804Z,22.97
2023-05-02T00:39:03.766Z,22.96
2023-05-02T00:39:13.789Z,22.99
2023-05-02T00:39:23.773Z,22.97
2023-05-02T00:39:53.801Z,22.97
2023-05-02T00:40:03.783Z,22.96
2023-05-02T00:40:13.797Z,22.97
2023-05-02T00:40:23.768Z,22.97
2023-05-02T00:40:33.813Z,22.94
2023-05-02T00:40:43.762Z,22.97
2023-05-02T00:40:53.803Z,22.99
2023-05-02T00:41:12.769Z,22.96
2023-05-02T00:41:23.768Z,22.93
2023-05-02T00:41:33.817Z,22.99
2023-05-02T00:41:43.752Z,22.96
2023-05-02T00:41:53.792Z,22.96
2023-05-02T00:42:13.767Z,22.96
2023-05-02T00:42:33.749Z,22.97
2023-05-02T00:42:43.779Z,22.99
2023-05-02T00:42:53.745Z,22.97
2023-05-02T00:43:03.773Z,22.99
2023-05-02T00:43:13.748Z,22.96
2023-05-02T00:43:23.757Z,22.94
2023-05-02T00:43:42.771Z,22.96
2023-05-02T00:43:53.739Z,22.96
2023-05-02T00:44:03.795Z,22.96
2023-05-02T00:44:13.750Z,22.97
2023-05-02T00:44:23.768Z,22.99
2023-05-02T00:44:43.752Z,22.96
2023-05-02T00:45:03.782Z,23.00
2023-05-02T00:45:13.749Z,22.96
2023-05-02T00:45:23.757Z,22.97
2023-05-02T00:45:33.726Z,22.99
2023-05-02T00:45:43.772Z,22.97
2023-05-02T00:45:53.754Z,22.94
2023-05-02T00:46:13.779Z,22.97
2023-05-02T00:46:23.873Z,22.97
2023-05-02T00:46:33.753Z,22.93
2023-05-02T00:46:43.785Z,22.96
2023-05-02T00:46:53.832Z,22.96
2023-05-02T00:47:23.732Z,22.93
2023-05-02T00:47:33.943Z,22.97
2023-05-02T00:47:43.795Z,22.96
2023-05-02T00:47:53.728Z,23.00
2023-05-02T00:48:03.759Z,22.96
2023-05-02T00:48:13.793Z,22.99
2023-05-02T00:48:33.717Z,22.97
2023-05-02T00:48:43.742Z,22.97
2023-05-02T00:48:53.712Z,22.97
2023-05-02T00:49:03.736Z,22.97
2023-05-02T00:49:13.706Z,22.94
2023-05-02T00:49:42.719Z,22.96
2023-05-02T00:49:53.697Z,22.96
2023-05-02T00:50:03.732Z,22.96
2023-05-02T00:50:13.700Z,22.97
2023-05-02T00:50:23.732Z,22.97
2023-05-02T00:50:33.702Z,22.97
2023-05-02T00:50:43.708Z,22.97
2023-05-02T00:51:03.736Z,22.97
2023-05-02T00:51:13.685Z,22.97
2023-05-02T00:51:23.702Z,22.97
2023-05-02T00:51:33.701Z,22.99
2023-05-02T00:51:43.699Z,22.96
2023-05-02T00:52:13.681Z,22.96
2023-05-02T00:52:23.713Z,22.96
2023-05-02T00:52:33.695Z,22.96
2023-05-02T00:52:43.713Z,22.96
2023-05-02T00:52:53.676Z,22.96
2023-05-02T00:53:03.692Z,22.91
2023-05-02T00:53:13.681Z,22.94
2023-05-02T00:53:33.671Z,22.94
2023-05-02T00:53:43.725Z,22.93
2023-05-02T00:53:53.671Z,22.96
2023-05-02T00:54:03.702Z,22.94
2023-05-02T00:54:13.677Z,22.96
2023-05-02T00:54:33.695Z,22.96
2023-05-02T00:54:53.662Z,22.94
2023-05-02T00:55:03.693Z,22.96
2023-05-02T00:55:13.673Z,22.96
2023-05-02T00:55:23.674Z,22.94
2023-05-02T00:55:33.651Z,22.96
2023-05-02T00:55:43.712Z,22.96
2023-05-02T00:56:03.712Z,22.94
2023-05-02T00:56:13.656Z,22.94
2023-05-02T00:56:23.685Z,22.96
2023-05-02T00:56:33.683Z,22.94
2023-05-02T00:56:43.682Z,22.96
2023-05-02T00:57:13.665Z,22.97
2023-05-02T00:57:23.661Z,22.94
2023-05-02T00:57:33.645Z,22.96
2023-05-02T00:57:43.653Z,22.96
2023-05-02T00:57:53.646Z,22.96
2023-05-02T00:58:03.674Z,22.93
2023-05-02T00:58:23.673Z,22.94
2023-05-02T00:58:33.647Z,22.94
2023-05-02T00:58:43.656Z,22.93
2023-05-02T00:58:53.640Z,22.94
2023-05-02T00:59:03.656Z,22.94
2023-05-02T00:59:33.635Z,22.96
2023-05-02T00:59:43.662Z,22.93
2023-05-02T00:59:53.626Z,22.94
2023-05-02T01:00:03.660Z,22.94
2023-05-02T01:00:13.628Z,22.94
2023-05-02T01:00:23.660Z,22.93
2023-05-02T01:00:43.636Z,22.96
2023-05-02T01:00:53.624Z,22.94
2023-05-02T01:01:03.651Z,22.93
2023-05-02T01:01:13.659Z,22.93
2023-05-02T01:01:23.707Z,22.91
2023-05-02T01:01:33.639Z,22.94
2023-05-02T01:01:43.729Z,22.94
2023-05-02T01:02:03.796Z,22.99
2023-05-02T01:02:13.670Z,22.96
2023-05-02T01:02:23.774Z,22.94
2023-05-02T01:02:33.755Z,22.97
2023-05-02T01:02:43.727Z,22.94
2023-05-02T01:02:53.740Z,22.93
2023-05-02T01:03:12.678Z,22.94
2023-05-02T01:03:23.766Z,22.96
2023-05-02T01:03:33.689Z,22.96
2023-05-02T01:03:43.721Z,22.93
2023-05-02T01:03:53.699Z,22.96
2023-05-02T01:04:03.765Z,22.96
2023-05-02T01:04:13.824Z,22.94
2023-05-02T01:04:32.594Z,22.96
2023-05-02T01:04:43.614Z,22.96
2023-05-02T01:05:02.615Z,22.94
2023-05-02T01:05:13.607Z,22.94
2023-05-02T01:05:23.609Z,22.96
2023-05-02T01:05:33.600Z,22.91
2023-05-02T01:05:53.587Z,22.96
2023-05-02T01:06:03.639Z,22.93
2023-05-02T01:06:13.661Z,22.94
2023-05-02T01:06:23.626Z,22.97
2023-05-02T01:06:33.625Z,22.94
2023-05-02T01:06:43.651Z,22.96
2023-05-02T01:07:03.595Z,22.94
2023-05-02T01:07:13.593Z,22.94
2023-05-02T01:07:23.622Z,22.94
2023-05-02T01:07:43.605Z,22.94
2023-05-02T01:07:53.574Z,22.96
2023-05-02T01:08:13.568Z,22.94
2023-05-02T01:08:23.609Z,22.91
2023-05-02T01:08:33.581Z,22.93
2023-05-02T01:08:43.612Z,22.94
2023-05-02T01:08:53.566Z,22.93
2023-05-02T01:09:03.600Z,22.96
2023-05-02T01:09:23.575Z,22.94
2023-05-02T01:09:33.573Z,22.96
2023-05-02T01:09:43.574Z,22.93
2023-05-02T01:09:53.574Z,22.94
2023-05-02T01:10:03.575Z,22.93
2023-05-02T01:10:23.579Z,22.94
2023-05-02T01:10:43.574Z,22.93
2023-05-02T01:10:53.557Z,22.91
2023-05-02T01:11:03.579Z,22.96
2023-05-02T01:11:13.539Z,22.93
2023-05-02T01:11:23.570Z,22.93
2023-05-02T01:11:33.543Z,22.91
2023-05-02T01:11:52.537Z,22.96
2023-05-02T01:12:03.573Z,22.91
2023-05-02T01:12:13.541Z,22.93
2023-05-02T01:12:23.553Z,22.91
2023-05-02T01:12:33.539Z,22.93
2023-05-02T01:12:43.549Z,22.94
2023-05-02T01:13:13.530Z,22.89
2023-05-02T01:13:23.559Z,22.94
2023-05-02T01:13:33.537Z,22.94
2023-05-02T01:13:43.546Z,22.93
2023-05-02T01:13:53.520Z,22.93
2023-05-02T01:14:03.545Z,22.96
2023-05-02T01:14:13.538Z,22.94
2023-05-02T01:14:32.521Z,22.96
2023-05-02T01:14:43.563Z,22.91
2023-05-02T01:14:53.522Z,22.91
2023-05-02T01:15:03.552Z,22.93
2023-05-02T01:15:13.543Z,22.91
2023-05-02T01:15:43.589Z,22.94
2023-05-02T01:15:53.584Z,22.91
2023-05-02T01:16:03.637Z,22.93
2023-05-02T01:16:13.542Z,22.94
2023-05-02T01:16:23.552Z,22.91
2023-05-02T01:16:33.573Z,22.94
2023-05-02T01:16:53.508Z,22.94
2023-05-02T01:17:03.540Z,22.93
2023-05-02T01:17:13.513Z,22.93
2023-05-02T01:17:23.628Z,22.91
2023-05-02T01:17:33.530Z,22.91
2023-05-02T01:17:43.564Z,22.88
2023-05-02T01:18:03.572Z,22.89
2023-05-02T01:18:13.598Z,22.93
2023-05-02T01:18:23.525Z,22.91
2023-05-02T01:18:33.529Z,22.89
2023-05-02T01:18:43.526Z,22.93
2023-05-02T01:18:53.516Z,22.93
2023-05-02T01:19:13.487Z,22.91
2023-05-02T01:19:23.508Z,22.91
2023-05-02T01:19:33.492Z,22.91
2023-05-02T01:19:43.500Z,22.91
2023-05-02T01:19:53.484Z,22.93
2023-05-02T01:20:03.760Z,22.91
2023-05-02T01:20:22.500Z,22.89
2023-05-02T01:20:43.513Z,22.91
2023-05-02T01:20:53.473Z,22.94
2023-05-02T01:21:03.507Z,22.91
2023-05-02T01:21:13.479Z,22.91
2023-05-02T01:21:23.491Z,22.89
2023-05-02T01:21:33.484Z,22.93
2023-05-02T01:21:52.469Z,22.91
2023-05-02T01:22:03.485Z,22.93
2023-05-02T01:22:13.473Z,22.91
2023-05-02T01:22:23.509Z,22.91
2023-05-02T01:22:33.476Z,22.91
2023-05-02T01:22:43.499Z,22.91
2023-05-02T01:22:53.475Z,22.93
2023-05-02T01:23:03.497Z,22.91
2023-05-02T01:23:22.492Z,22.93
2023-05-02T01:23:33.461Z,22.89
2023-05-02T01:23:43.509Z,22.91
2023-05-02T01:23:53.478Z,22.93
2023-05-02T01:24:03.508Z,22.91
2023-05-02T01:24:13.460Z,22.93
2023-05-02T01:24:23.484Z,22.91
2023-05-02T01:24:42.479Z,22.93
2023-05-02T01:24:53.448Z,22.93
2023-05-02T01:25:03.480Z,22.91
2023-05-02T01:25:13.480Z,22.91
2023-05-02T01:25:23.491Z,22.91
2023-05-02T01:25:33.485Z,22.91
2023-05-02T01:25:43.445Z,22.93
2023-05-02T01:25:53.467Z,22.89
2023-05-02T01:26:13.475Z,22.89
2023-05-02T01:26:23.452Z,22.91
2023-05-02T01:26:33.466Z,22.93
2023-05-02T01:26:43.438Z,22.91
2023-05-02T01:26:53.469Z,22.91
2023-05-02T01:27:03.434Z,22.93
2023-05-02T01:27:23.435Z,22.88
2023-05-02T01:27:33.451Z,22.93
2023-05-02T01:27:43.431Z,22.93
2023-05-02T01:27:53.458Z,22.93
2023-05-02T01:28:03.453Z,22.88
2023-05-02T01:28:13.463Z,22.89
2023-05-02T01:28:33.437Z,22.91
2023-05-02T01:28:43.423Z,22.91
2023-05-02T01:29:03.428Z,22.91
2023-05-02T01:29:13.436Z,22.91
2023-05-02T01:29:23.467Z,22.93
2023-05-02T01:29:33.449Z,22.89
2023-05-02T01:29:52.428Z,22.91
2023-05-02T01:30:03.427Z,22.88
2023-05-02T01:30:13.447Z,22.89
2023-05-02T01:30:23.426Z,22.91
2023-05-02T01:30:33.451Z,22.93
2023-05-02T01:30:43.431Z,22.86
2023-05-02T01:30:53.441Z,22.89
2023-05-02T01:31:13.448Z,22.93
2023-05-02T01:31:32.465Z,22.89
2023-05-02T01:31:43.470Z,22.93
2023-05-02T01:31:53.469Z,22.93
2023-05-02T01:32:03.498Z,22.91
2023-05-02T01:32:23.420Z,22.88
2023-05-02T01:32:33.632Z,22.93
2023-05-02T01:32:43.430Z,22.89
2023-05-02T01:32:53.435Z,22.88
2023-05-02T01:33:03.447Z,22.91
2023-05-02T01:33:13.488Z,22.91
2023-05-02T01:33:33.406Z,22.91
2023-05-02T01:33:43.386Z,22.91
2023-05-02T01:34:03.393Z,22.88
2023-05-02T01:34:13.422Z,22.91
2023-05-02T01:34:23.391Z,22.89
2023-05-02T01:34:43.380Z,22.91
2023-05-02T01:34:53.407Z,22.89
2023-05-02T01:35:03.377Z,22.88
2023-05-02T01:35:13.414Z,22.89
2023-05-02T01:35:23.377Z,22.91
2023-05-02T01:35:33.456Z,22.89
2023-05-02T01:35:43.422Z,22.91
2023-05-02T01:36:02.371Z,22.89
2023-05-02T01:36:13.386Z,22.91
2023-05-02T01:36:23.374Z,22.89
2023-05-02T01:36:43.373Z,22.91
2023-05-02T01:36:53.397Z,22.93
2023-05-02T01:37:03.362Z,22.91
2023-05-02T01:37:23.439Z,22.91
2023-05-02T01:37:33.394Z,22.86
2023-05-02T01:37:43.381Z,22.89
2023-05-02T01:37:53.422Z,22.88
2023-05-02T01:38:03.362Z,22.89
2023-05-02T01:38:13.380Z,22.91
2023-05-02T01:38:33.383Z,22.91
2023-05-02T01:38:43.356Z,22.91
2023-05-02T01:39:03.361Z,22.93
2023-05-02T01:39:13.368Z,22.88
2023-05-02T01:39:23.350Z,22.88
2023-05-02T01:39:33.386Z,22.88
2023-05-02T01:39:53.381Z,22.88
2023-05-02T01:40:03.382Z,22.89
2023-05-02T01:40:13.384Z,22.89
2023-05-02T01:40:23.350Z,22.88
2023-05-02T01:40:33.374Z,22.88
2023-05-02T01:40:43.349Z,22.91
2023-05-02T01:41:03.355Z,22.89
2023-05-02T01:41:13.388Z,22.89
2023-05-02T01:41:23.341Z,22.88
2023-05-02T01:41:33.395Z,22.89
2023-05-02T01:41:53.397Z,22.88
2023-05-02T01:42:13.362Z,22.89
2023-05-02T01:42:23.332Z,22.88
2023-05-02T01:42:33.355Z,22.86
2023-05-02T01:42:43.338Z,22.88
2023-05-02T01:42:53.341Z,22.88
2023-05-02T01:43:03.322Z,22.86
2023-05-02T01:43:22.327Z,22.89
2023-05-02T01:43:33.334Z,22.89
2023-05-02T01:43:52.335Z,22.85
2023-05-02T01:44:03.325Z,22.86
2023-05-02T01:44:13.337Z,22.86
2023-05-02T01:44:23.314Z,22.88
2023-05-02T01:44:33.363Z,22.88
2023-05-02T01:44:43.323Z,22.88
2023-05-02T01:44:53.345Z,22.86
2023-05-02T01:45:03.339Z,22.89
2023-05-02T01:45:13.349Z,22.89
2023-05-02T01:45:33.346Z,22.88
2023-05-02T01:45:43.302Z,22.88
2023-05-02T01:45:53.341Z,22.91
2023-05-02T01:46:03.326Z,22.86
2023-05-02T01:46:23.317Z,22.88
2023-05-02T01:46:42.385Z,22.89
2023-05-02T01:46:53.415Z,22.89
2023-05-02T01:47:03.404Z,22.93
2023-05-02T01:47:13.378Z,22.88
2023-05-02T01:47:23.324Z,22.91
2023-05-02T01:47:33.414Z,22.88
2023-05-02T01:47:43.317Z,22.88
2023-05-02T01:48:03.346Z,22.88
2023-05-02T01:48:13.322Z,22.88
2023-05-02T01:48:23.289Z,22.88
2023-05-02T01:48:33.333Z,22.88
2023-05-02T01:48:53.320Z,22.88
2023-05-02T01:49:13.322Z,22.88
2023-05-02T01:49:23.286Z,22.85
2023-05-02T01:49:33.294Z,22.89
2023-05-02T01:49:43.277Z,22.88
2023-05-02T01:49:53.309Z,22.88
2023-05-02T01:50:03.274Z,22.88
2023-05-02T01:50:23.276Z,22.86
2023-05-02T01:50:33.291Z,22.86
2023-05-02T01:50:43.273Z,22.91
2023-05-02T01:50:53.291Z,22.86
2023-05-02T01:51:03.270Z,22.88
2023-05-02T01:51:32.280Z,22.85
2023-05-02T01:51:43.265Z,22.88
2023-05-02T01:51:53.317Z,22.86
2023-05-02T01:52:03.289Z,22.86
2023-05-02T01:52:13.294Z,22.86
2023-05-02T01:52:23.263Z,22.88
2023-05-02T01:52:33.306Z,22.86
2023-05-02T01:52:52.276Z,22.86
2023-05-02T01:53:03.262Z,22.88
2023-05-02T01:53:13.274Z,22.89
2023-05-02T01:53:23.256Z,22.89
2023-05-02T01:53:33.288Z,22.88
2023-05-02T01:53:52.305Z,22.86
2023-05-02T01:54:13.279Z,22.86
2023-05-02T01:54:23.251Z,22.85
2023-05-02T01:54:33.280Z,22.88
2023-05-02T01:54:43.248Z,22.86
2023-05-02T01:54:53.276Z,22.88
2023-05-02T01:55:03.241Z,22.88
2023-05-02T01:55:22.245Z,22.86
2023-05-02T01:55:33.276Z,22.88
2023-05-02T01:55:43.235Z,22.88
2023-05-02T01:55:53.268Z,22.88
2023-05-02T01:56:13.264Z,22.88
2023-05-02T01:56:23.231Z,22.86
2023-05-02T01:56:43.297Z,22.86
2023-05-02T01:56:53.270Z,22.88
2023-05-02T01:57:03.229Z,22.86
2023-05-02T01:57:13.251Z,22.89
2023-05-02T01:57:23.228Z,22.86
2023-05-02T01:57:33.254Z,22.88
2023-05-02T01:57:53.244Z,22.85
2023-05-02T01:58:03.226Z,22.88
2023-05-02T01:58:13.239Z,22.88
2023-05-02T01:58:23.217Z,22.88
2023-05-02T01:58:43.210Z,22.88
2023-05-02T01:58:53.258Z,22.89
2023-05-02T01:59:13.231Z,22.86
2023-05-02T01:59:23.212Z,22.86
2023-05-02T01:59:33.227Z,22.86
2023-05-02T01:59:43.206Z,22.89
2023-05-02T01:59:53.239Z,22.89
2023-05-02T02:00:03.681Z,22.88
2023-05-02T02:00:13.255Z,22.85
2023-05-02T02:00:33.223Z,22.86
2023-05-02T02:00:43.247Z,22.86
2023-05-02T02:00:53.276Z,22.88
2023-05-02T02:01:03.961Z,22.84
2023-05-02T02:01:23.199Z,22.86
2023-05-02T02:01:33.338Z,22.86
2023-05-02T02:01:53.235Z,22.84
2023-05-02T02:02:03.196Z,22.88
2023-05-02T02:02:13.220Z,22.84
2023-05-02T02:02:23.200Z,22.82
2023-05-02T02:02:33.221Z,22.89
2023-05-02T02:02:43.192Z,22.85
2023-05-02T02:02:53.278Z,22.88
2023-05-02T02:03:13.288Z,22.85
2023-05-02T02:03:23.201Z,22.85
2023-05-02T02:03:33.261Z,22.85
2023-05-02T02:03:53.228Z,22.86
2023-05-02T02:04:03.182Z,22.85
2023-05-02T02:04:13.243Z,22.85
2023-05-02T02:04:32.225Z,22.84
2023-05-02T02:04:43.294Z,22.85
2023-05-02T02:04:53.192Z,22.86
2023-05-02T02:05:03.171Z,22.88
2023-05-02T02:05:13.189Z,22.85
2023-05-02T02:05:23.170Z,22.88
2023-05-02T02:05:33.185Z,22.85
2023-05-02T02:05:53.206Z,22.85
2023-05-02T02:06:12.228Z,22.85
2023-05-02T02:06:23.240Z,22.85
2023-05-02T02:06:33.229Z,22.85
2023-05-02T02:06:43.207Z,22.86
2023-05-02T02:07:03.172Z,22.86
2023-05-02T02:07:13.170Z,22.86
2023-05-02T02:07:23.168Z,22.86
2023-05-02T02:07:33.198Z,22.85
2023-05-02T02:07:43.163Z,22.86
2023-05-02T02:07:53.170Z,22.85
2023-05-02T02:08:03.173Z,22.84
2023-05-02T02:08:23.210Z,22.85
2023-05-02T02:08:43.182Z,22.84
2023-05-02T02:08:53.145Z,22.85
2023-05-02T02:09:03.192Z,22.86
2023-05-02T02:09:13.143Z,22.86
2023-05-02T02:09:33.137Z,22.86
2023-05-02T02:09:43.171Z,22.86
2023-05-02T02:09:53.168Z,22.85
2023-05-02T02:10:03.261Z,22.84
2023-05-02T02:10:13.141Z,22.85
2023-05-02T02:10:23.148Z,22.85
2023-05-02T02:10:33.142Z,22.85
2023-05-02T02:10:53.129Z,22.84
2023-05-02T02:11:13.135Z,22.86
2023-05-02T02:11:23.142Z,22.85
2023-05-02T02:11:33.128Z,22.84
2023-05-02T02:11:43.153Z,22.85
2023-05-02T02:12:03.137Z,22.85
2023-05-02T02:12:13.123Z,22.82
2023-05-02T02:12:23.133Z,22.86
2023-05-02T02:12:33.128Z,22.88
2023-05-02T02:12:43.144Z,22.85
2023-05-02T02:12:53.114Z,22.82
2023-05-02T02:13:03.157Z,22.85
2023-05-02T02:13:23.130Z,22.86
2023-05-02T02:13:33.107Z,22.85
2023-05-02T02:13:43.138Z,22.84
2023-05-02T02:14:02.117Z,22.84
2023-05-02T02:14:13.104Z,22.86
2023-05-02T02:14:33.104Z,22.82
2023-05-02T02:14:43.151Z,22.86
2023-05-02T02:14:53.103Z,22.85
2023-05-02T02:15:03.153Z,22.84
2023-05-02T02:15:13.127Z,22.82
2023-05-02T02:15:23.127Z,22.84
2023-05-02T02:15:43.133Z,22.82
2023-05-02T02:15:53.092Z,22.84
2023-05-02T02:16:03.120Z,22.84
2023-05-02T02:16:23.158Z,22.82
2023-05-02T02:16:33.129Z,22.82
2023-05-02T02:16:52.119Z,22.85
2023-05-02T02:17:03.182Z,22.85
2023-05-02T02:17:13.093Z,22.82
2023-05-02T02:17:23.133Z,22.84
2023-05-02T02:17:33.103Z,22.84
2023-05-02T02:17:43.118Z,22.84
2023-05-02T02:17:53.140Z,22.82
2023-05-02T02:18:12.158Z,22.85
2023-05-02T02:18:23.106Z,22.84
2023-05-02T02:18:33.093Z,22.85
2023-05-02T02:18:43.108Z,22.82
2023-05-02T02:19:03.105Z,22.84
2023-05-02T02:19:13.072Z,22.85
2023-05-02T02:19:32.069Z,22.82
2023-05-02T02:19:43.088Z,22.84
2023-05-02T02:19:53.062Z,22.85
2023-05-02T02:20:03.082Z,22.85
2023-05-02T02:20:13.058Z,22.82
2023-05-02T02:20:23.090Z,22.82
2023-05-02T02:20:33.069Z,22.81
2023-05-02T02:20:43.097Z,22.84
2023-05-02T02:21:03.102Z,22.82
2023-05-02T02:21:23.071Z,22.84
2023-05-02T02:21:33.059Z,22.82
2023-05-02T02:21:43.080Z,22.84
2023-05-02T02:21:53.048Z,22.84
2023-05-02T02:22:13.054Z,22.84
2023-05-02T02:22:23.058Z,22.85
2023-05-02T02:22:33.041Z,22.84
2023-05-02T02:22:43.084Z,22.84
2023-05-02T02:22:53.040Z,22.85
2023-05-02T02:23:03.060Z,22.82
2023-05-02T02:23:23.073Z,22.84
2023-05-02T02:23:33.041Z,22.82
2023-05-02T02:23:52.026Z,22.85
2023-05-02T02:24:03.070Z,22.82
2023-05-02T02:24:13.030Z,22.84
2023-05-02T02:24:32.025Z,22.81
2023-05-02T02:24:43.048Z,22.84
2023-05-02T02:24:54.399Z,22.82
2023-05-02T02:25:03.077Z,22.82
2023-05-02T02:25:13.024Z,22.81
2023-05-02T02:25:23.056Z,22.84
2023-05-02T02:25:33.017Z,22.82
2023-05-02T02:25:53.018Z,22.85
2023-05-02T02:26:03.055Z,22.82
2023-05-02T02:26:23.053Z,22.84
2023-05-02T02:26:33.015Z,22.81
2023-05-02T02:26:43.028Z,22.81
2023-05-02T02:27:03.027Z,22.82
2023-05-02T02:27:13.021Z,22.84
2023-05-02T02:27:23.024Z,22.82
2023-05-02T02:27:33.005Z,22.81
2023-05-02T02:27:43.024Z,22.81
2023-05-02T02:27:53.006Z,22.82
2023-05-02T02:28:13.005Z,22.82
2023-05-02T02:28:23.063Z,22.81
2023-05-02T02:28:33.012Z,22.79
2023-05-02T02:28:52.062Z,22.82
2023-05-02T02:29:03.100Z,22.84
2023-05-02T02:29:13.069Z,22.79
2023-05-02T02:29:23.164Z,22.81
2023-05-02T02:29:33.092Z,22.85
2023-05-02T02:29:43.077Z,22.82
2023-05-02T02:29:53.059Z,22.81
2023-05-02T02:30:13.073Z,22.78
2023-05-02T02:30:23.077Z,22.81
2023-05-02T02:30:33.083Z,22.79
2023-05-02T02:30:43.143Z,22.81
2023-05-02T02:30:53.144Z,22.82
2023-05-02T02:31:23.083Z,22.82
2023-05-02T02:31:33.095Z,22.79
2023-05-02T02:31:43.082Z,22.81
2023-05-02T02:31:53.069Z,22.81
2023-05-02T02:32:03.077Z,22.82
2023-05-02T02:32:13.045Z,22.82
2023-05-02T02:32:23.118Z,22.81
2023-05-02T02:32:43.101Z,22.81
2023-05-02T02:32:53.088Z,22.82
2023-05-02T02:33:03.086Z,22.84
2023-05-02T02:33:13.077Z,22.85
2023-05-02T02:33:23.057Z,22.79
2023-05-02T02:33:43.104Z,22.82
2023-05-02T02:34:03.059Z,22.79
2023-05-02T02:34:13.030Z,22.81
2023-05-02T02:34:23.064Z,22.82
2023-05-02T02:34:33.033Z,22.81
2023-05-02T02:34:43.085Z,22.82
2023-05-02T02:34:53.024Z,22.82
2023-05-02T02:35:12.018Z,22.81
2023-05-02T02:35:23.054Z,22.82
2023-05-02T02:35:33.025Z,22.81
2023-05-02T02:35:43.052Z,22.84
2023-05-02T02:35:53.021Z,22.82
2023-05-02T02:36:03.058Z,22.81
2023-05-02T02:36:13.023Z,22.82
2023-05-02T02:36:43.048Z,22.81
2023-05-02T02:36:53.009Z,22.81
2023-05-02T02:37:03.039Z,22.82
2023-05-02T02:37:13.012Z,22.81
2023-05-02T02:37:23.051Z,22.79
2023-05-02T02:37:33.018Z,22.79
2023-05-02T02:37:53.012Z,22.79
2023-05-02T02:38:03.050Z,22.81
2023-05-02T02:38:13.007Z,22.79
2023-05-02T02:38:23.050Z,22.82
2023-05-02T02:38:33.003Z,22.81